Flight Track Log - Related Links

Times and Time Zones

All times are in EST time to prevent confusion due to time zone crossing. See the EJA831 flight status page for this flight to view local times or setup timezone preferences in your user account.

Time Position Orientation Groundspeed Altitude Reporting Facility
EST Latitude Longitude Course Direction KTS MPH feet Rate Location/Type
Sun 05:56:28 PM 34.0000 -84.5667 112° Southeast 175 201 2,400  Level Atlanta TRACON
Sun 05:57:28 PM 33.9833 -84.5167 112° Southeast 185 213 4,100 1,527 Climbing Atlanta TRACON
Sun 05:58:18 PM 33.9458 -84.4819 142° Southeast 185 213 5,200 1,036 Climbing Atlanta Center
Sun 05:59:18 PM 33.8958 -84.4742 173° South 185 213 6,000 400 Climbing Atlanta Center
Sun 06:00:18 PM 33.8311 -84.4764 182° South 190 219 6,000 46 Level Atlanta Center
Sun 06:01:28 PM 33.7833 -84.4667 170° South 179 206 6,100 46 Climbing Atlanta TRACON
Sun 06:02:28 PM 33.7167 -84.4667 180° South 188 216 6,100 -35 Level Atlanta TRACON
Sun 06:04:18 PM 33.6286 -84.4656 179° South 202 232 6,000 -35 Descending Atlanta Center
Sun 06:05:18 PM 33.5828 -84.4628 177° South 196 226 6,000  Level Atlanta Center
Sun 06:06:18 PM 33.5283 -84.4575 175° South 196 226 6,000  Level Atlanta Center
Sun 06:07:18 PM 33.4742 -84.4497 173° South 196 226 6,000 1,100 Level Atlanta Center
Sun 06:08:18 PM 33.4139 -84.4072 150° Southeast 219 252 8,200 1,500 Climbing Atlanta Center
Sun 06:09:18 PM 33.3472 -84.3694 155° Southeast 258 297 9,000 650 Climbing Atlanta Center
Sun 06:10:18 PM 33.2783 -84.3269 153° Southeast 277 319 9,500 950 Climbing Atlanta Center
Sun 06:11:18 PM 33.2053 -84.2847 154° Southeast 282 325 10,900 1,650 Climbing Atlanta Center
Sun 06:12:18 PM 33.1200 -84.2322 153° Southeast 304 350 12,800 2,700 Climbing Atlanta Center
Sun 06:13:18 PM 33.0469 -84.1800 149° Southeast 310 357 16,300 2,500 Climbing Atlanta Center
Sun 06:14:18 PM 32.9678 -84.1231 149° Southeast 310 357 17,800 1,650 Climbing Atlanta Center
Sun 06:15:18 PM 32.8842 -84.0686 151° Southeast 324 373 19,600 1,600 Climbing Atlanta Center
Sun 06:16:18 PM 32.8153 -84.0264 153° Southeast 336 387 21,000 1,650 Climbing Atlanta Center
Sun 06:17:18 PM 32.7150 -83.9794 158° South 348 400 22,900 1,850 Climbing Atlanta Center
Sun 06:18:18 PM 32.6211 -83.9403 161° South 353 406 24,700 1,600 Climbing Atlanta Center
Sun 06:19:18 PM 32.5272 -83.8983 159° South 358 412 26,100 1,250 Climbing Atlanta Center
Sun 06:20:18 PM 32.4247 -83.8542 160° South 373 429 27,200 1,200 Climbing Atlanta Center
Sun 06:22:03 PM 32.2492 -83.7769 160° South 394 453 29,400 1,236 Climbing Jacksonville Center
Sun 06:23:03 PM 32.1428 -83.7292 159° South 400 460 30,600 1,100 Climbing Jacksonville Center
Sun 06:24:03 PM 32.0367 -83.6817 159° South 405 466 31,600 1,000 Climbing Jacksonville Center
Sun 06:25:03 PM 31.9325 -83.6342 159° South 411 473 32,600 950 Climbing Jacksonville Center
Sun 06:26:03 PM 31.8244 -83.5869 160° South 411 473 33,500 1,050 Climbing Jacksonville Center
Sun 06:27:03 PM 31.7056 -83.5347 160° South 411 473 34,700 750 Climbing Jacksonville Center
Sun 06:28:03 PM 31.5972 -83.4903 161° South 411 473 35,000 150 Climbing Jacksonville Center
Sun 06:29:03 PM 31.4889 -83.4481 162° South 411 473 35,000  Level Jacksonville Center
Sun 06:30:03 PM 31.3806 -83.4011 160° South 411 473 35,000  Level Jacksonville Center
Sun 06:31:03 PM 31.2700 -83.3544 160° South 411 473 35,000  Level Jacksonville Center
Sun 06:32:03 PM 31.1636 -83.3078 159° South 411 473 35,000  Level Jacksonville Center
Sun 06:33:03 PM 31.0572 -83.2611 159° South 411 473 35,000  Level Jacksonville Center
Sun 06:34:03 PM 30.9508 -83.2172 161° South 411 473 35,000  Level Jacksonville Center
Sun 06:35:03 PM 30.8403 -83.1708 160° South 411 473 35,000  Level Jacksonville Center
Sun 06:36:03 PM 30.7467 -83.1269 158° South 405 466 35,000  Level Jacksonville Center
Sun 06:37:03 PM 30.6381 -83.0833 161° South 411 473 35,000  Level Jacksonville Center
Sun 06:38:03 PM 30.5275 -83.0397 161° South 411 473 35,000  Level Jacksonville Center
Sun 06:39:03 PM 30.4211 -82.9936 160° South 411 473 35,000  Level Jacksonville Center
Sun 06:40:03 PM 30.3103 -82.9478 160° South 411 473 35,000  Level Jacksonville Center
Sun 06:41:03 PM 30.2039 -82.9022 160° South 411 473 35,000  Level Jacksonville Center
Sun 06:42:03 PM 30.0953 -82.8542 159° South 411 473 35,000  Level Jacksonville Center
Sun 06:43:03 PM 29.9806 -82.8133 163° South 416 479 35,000  Level Jacksonville Center
Sun 06:44:03 PM 29.8719 -82.7681 160° South 416 479 35,000  Level Jacksonville Center
Sun 06:45:03 PM 29.7611 -82.7228 160° South 421 484 35,000  Level Jacksonville Center
Sun 06:46:03 PM 29.6464 -82.6728 159° South 430 495 35,000  Level Jacksonville Center
Sun 06:47:03 PM 29.5356 -82.6253 160° South 430 495 35,000  Level Jacksonville Center
Sun 06:48:03 PM 29.4228 -82.5803 161° South 430 495 35,000  Level Jacksonville Center
Sun 06:49:03 PM 29.3097 -82.5331 160° South 425 489 35,000  Level Jacksonville Center
Sun 06:50:03 PM 29.1969 -82.4883 161° South 425 489 35,000  Level Jacksonville Center
Sun 06:51:03 PM 29.0842 -82.4600 168° South 425 489 35,000  Level Jacksonville Center
Sun 06:52:57 PM 28.8631 -82.5081 191° South 408 470 35,000  Level Miami Center
Sun 06:53:57 PM 28.7536 -82.5356 192° South 408 470 35,000  Level Miami Center
Sun 06:54:57 PM 28.6439 -82.5653 193° South 413 475 35,000  Level Miami Center
Sun 06:55:57 PM 28.5428 -82.5933 194° South 413 475 35,000  Level Miami Center
Sun 06:56:57 PM 28.4353 -82.6208 193° South 413 475 35,000  Level Miami Center
Sun 06:57:57 PM 28.3214 -82.6503 193° South 413 475 35,000  Level Miami Center
Sun 06:58:57 PM 28.2139 -82.6778 193° South 413 475 35,000  Level Miami Center
Sun 06:59:57 PM 28.1022 -82.7072 193° South 413 475 35,000  Level Miami Center
Sun 07:00:57 PM 27.9928 -82.7297 190° South 413 475 35,000  Level Miami Center
Sun 07:01:57 PM 27.8725 -82.7164 174° South 413 475 35,000  Level Miami Center
Sun 07:02:57 PM 27.7556 -82.6683 160° South 418 481 35,000  Level Miami Center
Sun 07:03:57 PM 27.6425 -82.6275 162° South 419 482 35,000  Level Miami Center
Sun 07:04:57 PM 27.5375 -82.5894 162° South 424 488 35,000  Level Miami Center
Sun 07:05:57 PM 27.4222 -82.5486 163° South 429 494 35,000  Level Miami Center
Sun 07:06:57 PM 27.3031 -82.5006 160° South 434 499 35,000  Level Miami Center
Sun 07:07:57 PM 27.1983 -82.4606 161° South 434 499 35,000  Level Miami Center
Sun 07:08:57 PM 27.0894 -82.4133 159° South 434 499 35,000  Level Miami Center
Sun 07:09:57 PM 26.9953 -82.3133 137° Southeast 434 499 35,000  Level Miami Center
Sun 07:10:57 PM 26.9114 -82.2092 132° Southeast 444 511 35,000  Level Miami Center
Sun 07:11:57 PM 26.8275 -82.1053 132° Southeast 449 517 35,000 -600 Level Miami Center
Sun 07:12:57 PM 26.7356 -81.9897 132° Southeast 449 517 33,800 -1,750 Descending Miami Center
Sun 07:13:57 PM 26.6533 -81.8931 134° Southeast 443 510 31,500 -2,300 Descending Miami Center
Sun 07:14:57 PM 26.5711 -81.7944 133° Southeast 433 498 29,200 -2,300 Descending Miami Center
Sun 07:15:57 PM 26.4911 -81.6914 131° Southeast 433 498 26,900 -2,200 Descending Miami Center
Sun 07:16:57 PM 26.4150 -81.5978 132° Southeast 428 493 24,800 -2,150 Descending Miami Center
Sun 07:17:57 PM 26.3406 -81.5044 132° Southeast 416 479 22,600 -2,150 Descending Miami Center
Sun 07:18:57 PM 26.2661 -81.4181 134° Southeast 402 463 20,500 -2,050 Descending Miami Center
Sun 07:19:57 PM 26.1958 -81.3297 132° Southeast 385 443 18,500 -1,950 Descending Miami Center
Sun 07:20:57 PM 26.1253 -81.2486 134° Southeast 374 430 16,600 -1,850 Descending Miami Center
Sun 07:21:57 PM 26.0606 -81.1700 132° Southeast 363 418 14,800 -1,886 Descending Miami Center
Sun 07:22:07 PM 26.0464 -81.1578 142° Southeast 338 389 14,400 -1,729 Descending Miami Center
Sun 07:22:56 PM 25.9958 -81.0981 133° Southeast 329 379 13,100 -1,320 Descending Miami Center
Sun 07:22:57 PM 26.0103 -81.1103 323° Northwest 338 389 13,300 -1,770 Climbing Miami Center
Sun 07:23:57 PM 25.9436 -81.0317 133° Southeast 305 351 11,300 -2,000 Descending Miami Center
Sun 07:24:03 PM 25.9353 -81.0244 142° Southeast 268 308 11,100 -1,700 Descending Miami Center
Sun 07:24:57 PM 25.8994 -80.9631 123° Southeast 282 325 9,600 -1,636 Descending Miami Center
Sun 07:24:58 PM 25.8933 -80.9631 180° South 262 302 9,600 -1,622 Level Miami Center
Sun 07:26:11 PM 25.8497 -80.8783 120° Southeast 260 299 7,600 -1,688 Descending Miami Center
Sun 07:27:06 PM 25.8181 -80.8081 117° Southeast 271 312 6,000 -1,755 Descending Miami Center
Sun 07:27:57 PM 25.7989 -80.7497 110° East 259 298 4,500 -1,672 Descending Miami Center
Sun 07:28:07 PM 25.7928 -80.7428 134° Southeast 231 266 4,300 -1,268 Descending Miami Center
Sun 07:29:08 PM 25.7842 -80.6686 97° East 220 253 3,000 -709 Descending Miami Center
Sun 07:29:57 PM 25.7900 -80.6133 83° East 220 253 3,000  Level Miami Center
Sun 07:30:09 PM 25.7861 -80.6017 110° East 213 245 3,000 -100 Level Miami Center
Sun 07:30:57 PM 25.7936 -80.5467 81° East 215 247 2,900  Descending Miami Center
Sun 07:31:09 PM 25.7897 -80.5372 115° Southeast 205 236 3,000  Climbing Miami Center
Sun 07:31:57 PM 25.7950 -80.4889 83° East 210 242 2,900  Descending Miami Center
Sun 07:32:10 PM 25.7931 -80.4819 107° East 181 208 3,000 -730 Climbing Miami Center
Sun 07:33:11 PM 25.7967 -80.4292 86° East 160 184 2,000 -836 Descending Miami Center
Sun 07:34:12 PM 25.7958 -80.3783 91° East 157 181 1,300 -689 Descending Miami Center
Sun 07:35:13 PM 25.7986 -80.3414 85° East 107 123 600 -621 Descending Miami Center
Sun 07:36:08 PM 25.8014 -80.3092 85° East 110 127 100 -545 Descending Miami Center
Sun 07:38:00 PM 25.7954 -80.2901 20° North  Level Estimated

Login

Don't have an account? Register now (free) for customized features, flight alerts, and more!